createdAt,value
2022-10-20T00:01:14.491Z,19.23
2022-10-20T00:05:18.184Z,28.15
2022-10-20T00:09:21.196Z,21.80
2022-10-20T00:13:25.119Z,23.90
2022-10-20T00:17:29.631Z,19.75
2022-10-20T00:21:33.959Z,22.23
2022-10-20T00:26:09.069Z,20.93
2022-10-20T00:30:12.771Z,22.83
2022-10-20T00:34:17.269Z,21.97
2022-10-20T00:38:51.196Z,27.40
2022-10-20T00:42:54.276Z,20.57
2022-10-20T00:46:58.522Z,22.17
2022-10-20T00:51:03.134Z,23.73
2022-10-20T00:55:08.664Z,23.70
2022-10-20T00:59:13.630Z,27.98
2022-10-20T01:03:20.992Z,21.97
2022-10-20T01:07:25.463Z,24.90
2022-10-20T01:12:02.633Z,25.83
2022-10-20T01:16:13.859Z,26.47
2022-10-20T01:20:36.237Z,22.40
2022-10-20T01:25:03.280Z,30.97
2022-10-20T01:29:14.877Z,24.23
2022-10-20T01:33:23.092Z,20.23
2022-10-20T01:37:48.398Z,28.53
2022-10-20T01:41:56.854Z,22.07
2022-10-20T01:46:02.843Z,30.90
2022-10-20T01:50:08.152Z,23.00
2022-10-20T01:54:22.130Z,26.23
2022-10-20T01:59:01.064Z,24.27
2022-10-20T02:03:33.345Z,31.17
2022-10-20T02:07:36.956Z,25.23
2022-10-20T02:12:16.576Z,24.90
2022-10-20T02:16:24.056Z,24.20
2022-10-20T02:20:29.287Z,29.45
2022-10-20T02:25:06.386Z,27.63
2022-10-20T02:29:14.648Z,23.20
2022-10-20T02:33:19.239Z,29.03
2022-10-20T02:37:23.619Z,28.87
2022-10-20T02:41:58.059Z,27.37
2022-10-20T02:46:01.097Z,28.15
2022-10-20T02:50:38.040Z,27.73
2022-10-20T02:54:42.473Z,29.60
2022-10-20T02:59:40.353Z,32.63
2022-10-20T03:03:43.379Z,33.20
2022-10-20T03:07:46.510Z,30.57
2022-10-20T03:11:50.923Z,32.90
2022-10-20T03:16:24.669Z,32.27
2022-10-20T03:20:27.852Z,25.40
2022-10-20T03:25:01.756Z,31.53
2022-10-20T03:29:40.329Z,29.63
2022-10-20T03:33:43.529Z,27.03
2022-10-20T03:38:20.555Z,29.93
2022-10-20T03:42:57.199Z,31.80
2022-10-20T03:47:10.141Z,30.47
2022-10-20T03:51:44.090Z,32.77
2022-10-20T03:56:20.990Z,33.33
2022-10-20T04:01:18.790Z,31.27
2022-10-20T04:05:57.032Z,38.30
2022-10-20T04:10:31.082Z,32.67
2022-10-20T04:15:07.822Z,36.03
2022-10-20T04:19:44.772Z,28.83
2022-10-20T04:23:49.335Z,36.00
2022-10-20T04:27:52.414Z,35.63
2022-10-20T04:32:29.459Z,38.10
2022-10-20T04:37:06.449Z,33.67
2022-10-20T04:41:11.913Z,35.03
2022-10-20T04:45:14.991Z,28.60
2022-10-20T04:49:18.475Z,32.57
2022-10-20T04:53:55.115Z,31.57
2022-10-20T04:57:59.849Z,31.93
2022-10-20T05:02:02.988Z,39.37
2022-10-20T05:06:10.541Z,35.83
2022-10-20T05:10:13.601Z,35.20
2022-10-20T05:14:52.215Z,39.53
2022-10-20T05:18:57.680Z,29.88
2022-10-20T05:23:00.831Z,37.00
2022-10-20T05:27:04.037Z,46.33
2022-10-20T05:31:09.569Z,36.83
2022-10-20T05:35:12.612Z,43.33
2022-10-20T05:39:15.713Z,34.47
2022-10-20T05:43:53.106Z,36.90
2022-10-20T05:47:57.725Z,34.57
2022-10-20T05:52:31.741Z,35.00
2022-10-20T05:56:34.811Z,33.40
2022-10-20T06:00:42.310Z,31.43
2022-10-20T06:04:46.875Z,37.70
2022-10-20T06:08:50.953Z,33.43
2022-10-20T06:13:24.803Z,29.33
2022-10-20T06:17:27.944Z,37.23
2022-10-20T06:22:07.076Z,31.40
2022-10-20T06:26:12.433Z,30.67
2022-10-20T06:30:15.627Z,30.73
2022-10-20T06:34:54.004Z,43.13
2022-10-20T06:39:00.023Z,30.90
2022-10-20T06:43:03.124Z,34.43
2022-10-20T06:47:40.159Z,36.87
2022-10-20T06:51:43.932Z,35.87
2022-10-20T06:55:56.791Z,35.27
2022-10-20T07:00:54.731Z,30.10
2022-10-20T07:04:57.862Z,27.13
2022-10-20T07:09:34.480Z,33.70
2022-10-20T07:13:39.484Z,26.50
2022-10-20T07:17:42.774Z,27.03
2022-10-20T07:22:20.891Z,37.40
2022-10-20T07:26:26.506Z,30.67
2022-10-20T07:30:31.066Z,30.50
2022-10-20T07:34:34.157Z,28.23
2022-10-20T07:38:37.281Z,27.75
2022-10-20T07:43:14.386Z,24.97
2022-10-20T07:47:19.189Z,25.90
2022-10-20T07:51:53.228Z,23.73
2022-10-20T07:55:56.252Z,25.73
2022-10-20T07:59:59.262Z,22.80
2022-10-20T08:04:37.390Z,23.15
2022-10-20T08:08:40.500Z,25.63
2022-10-20T08:12:49.406Z,23.60
2022-10-20T08:16:57.540Z,22.67
2022-10-20T08:21:14.991Z,19.83
2022-10-20T08:25:18.618Z,22.30
2022-10-20T08:29:21.694Z,18.52
2022-10-20T08:33:24.951Z,24.70
2022-10-20T08:38:03.115Z,16.33
2022-10-20T08:42:08.979Z,17.85
2022-10-20T08:46:43.206Z,17.10
2022-10-20T08:50:47.939Z,21.38
2022-10-20T08:54:55.660Z,16.00
2022-10-20T08:58:58.807Z,13.77
2022-10-20T09:03:05.401Z,19.80
2022-10-20T09:07:37.214Z,15.90
2022-10-20T09:11:44.387Z,13.82
2022-10-20T09:15:47.904Z,12.32
2022-10-20T09:19:55.691Z,16.02
2022-10-20T09:24:03.519Z,13.32
2022-10-20T09:28:21.536Z,15.82
2022-10-20T09:32:56.322Z,13.00
2022-10-20T09:37:05.341Z,11.95
2022-10-20T09:41:14.799Z,10.55
2022-10-20T09:45:52.209Z,14.30
2022-10-20T09:50:00.976Z,9.95
2022-10-20T09:54:07.599Z,13.95
2022-10-20T09:58:22.227Z,9.30
2022-10-20T10:02:48.299Z,11.52
2022-10-20T10:06:51.352Z,9.32
2022-10-20T10:11:03.278Z,12.52
2022-10-20T10:15:38.619Z,10.43
2022-10-20T10:19:52.550Z,13.05
2022-10-20T10:24:01.480Z,9.13
2022-10-20T10:28:38.990Z,9.07
2022-10-20T10:32:45.870Z,9.70
2022-10-20T10:41:59.835Z,8.07
2022-10-20T10:46:07.889Z,8.10
2022-10-20T10:50:27.797Z,7.40
2022-10-20T10:54:47.263Z,7.55
2022-10-20T10:58:58.804Z,12.93
2022-10-20T11:03:39.037Z,8.38
2022-10-20T11:07:47.243Z,9.50
2022-10-20T11:12:12.471Z,10.55
2022-10-20T11:16:56.051Z,8.85
2022-10-20T11:21:18.913Z,7.95
2022-10-20T11:25:33.601Z,9.50
2022-10-20T11:30:05.373Z,12.35
2022-10-20T11:34:13.582Z,12.40
2022-10-20T11:38:22.996Z,11.15
2022-10-20T11:42:32.705Z,9.13
2022-10-20T11:46:41.983Z,8.27
2022-10-20T11:50:52.313Z,6.70
2022-10-20T11:55:19.810Z,12.70
2022-10-20T11:59:54.646Z,6.80
2022-10-20T12:04:29.349Z,7.20
2022-10-20T12:09:06.215Z,6.63
2022-10-20T12:13:23.181Z,6.00
2022-10-20T12:17:32.216Z,5.05
2022-10-20T12:22:06.634Z,6.30
2022-10-20T12:26:54.139Z,12.43
2022-10-20T12:30:59.330Z,8.27
2022-10-20T12:35:47.868Z,5.80
2022-10-20T12:39:52.867Z,5.80
2022-10-20T12:44:04.935Z,5.68
2022-10-20T12:48:10.979Z,6.20
2022-10-20T12:52:20.856Z,4.20
2022-10-20T12:56:29.157Z,10.27
2022-10-20T13:01:03.563Z,5.20
2022-10-20T13:05:40.007Z,4.97
2022-10-20T13:10:00.276Z,4.75
2022-10-20T13:14:19.546Z,4.03
2022-10-20T13:18:45.644Z,5.50
2022-10-20T13:22:52.578Z,11.45
2022-10-20T13:26:59.856Z,6.18
2022-10-20T13:31:24.374Z,3.50
2022-10-20T13:35:50.752Z,10.25
2022-10-20T13:40:04.141Z,5.10
2022-10-20T13:44:20.577Z,4.03
2022-10-20T13:49:10.710Z,4.55
2022-10-20T13:53:22.299Z,5.53
2022-10-20T13:57:31.933Z,7.03
2022-10-20T14:01:38.106Z,4.50
2022-10-20T14:05:42.597Z,4.07
2022-10-20T14:09:47.647Z,6.18
2022-10-20T14:14:22.680Z,7.47
2022-10-20T14:18:27.749Z,7.72
2022-10-20T14:22:33.976Z,11.02
2022-10-20T14:27:14.641Z,5.35
2022-10-20T14:31:17.994Z,3.97
2022-10-20T14:36:04.766Z,6.25
2022-10-20T14:40:35.330Z,12.00
2022-10-20T14:45:20.945Z,4.88
2022-10-20T14:49:27.208Z,4.53
2022-10-20T14:54:17.181Z,3.40
2022-10-20T14:58:40.507Z,6.40
2022-10-20T15:02:46.010Z,4.97
2022-10-20T15:07:22.636Z,6.25
2022-10-20T15:11:56.406Z,4.95
2022-10-20T15:16:01.209Z,2.80
2022-10-20T15:20:38.938Z,5.53
2022-10-20T15:25:13.080Z,4.85
2022-10-20T15:29:49.743Z,8.55
2022-10-20T15:33:53.053Z,5.97
2022-10-20T15:38:31.251Z,11.23
2022-10-20T15:42:34.536Z,23.70
2022-10-20T15:46:37.954Z,7.88
2022-10-20T15:51:16.825Z,13.10
2022-10-20T15:55:23.738Z,7.40
2022-10-20T15:59:29.610Z,10.35
2022-10-20T16:04:08.015Z,5.68
2022-10-20T16:08:11.815Z,6.25
2022-10-20T16:12:48.972Z,8.95
2022-10-20T16:16:53.510Z,7.63
2022-10-20T16:20:58.965Z,7.50
2022-10-20T16:25:02.451Z,5.97
2022-10-20T16:29:39.975Z,4.28
2022-10-20T16:33:44.764Z,11.13
2022-10-20T16:37:47.800Z,6.07
2022-10-20T16:42:24.343Z,7.10
2022-10-20T16:46:27.372Z,5.85
2022-10-20T16:50:31.784Z,9.05
2022-10-20T16:55:06.214Z,8.48
2022-10-20T16:59:09.903Z,9.18
2022-10-20T17:03:47.118Z,12.82
2022-10-20T17:07:51.987Z,11.85
2022-10-20T17:11:55.004Z,13.15
2022-10-20T17:16:32.989Z,9.55
2022-10-20T17:20:38.934Z,13.75
2022-10-20T17:24:43.368Z,15.18
2022-10-20T17:29:17.133Z,11.10
2022-10-20T17:33:54.948Z,15.27
2022-10-20T17:38:32.063Z,10.05
2022-10-20T17:43:08.622Z,11.20
2022-10-20T17:47:13.066Z,10.65
2022-10-20T17:51:47.042Z,14.50
2022-10-20T17:56:24.664Z,11.32
2022-10-20T18:00:50.997Z,8.60
2022-10-20T18:05:04.104Z,17.63
2022-10-20T18:09:37.833Z,9.90
2022-10-20T18:14:14.708Z,13.93
2022-10-20T18:18:17.760Z,11.77
2022-10-20T18:22:22.251Z,12.65
2022-10-20T18:26:56.071Z,14.50
2022-10-20T18:31:32.796Z,13.88
2022-10-20T18:35:37.911Z,13.27
2022-10-20T18:40:11.762Z,12.82
2022-10-20T18:44:50.256Z,13.48
2022-10-20T18:49:24.504Z,17.50
2022-10-20T18:54:02.382Z,57.65
2022-10-20T18:58:38.426Z,14.73
2022-10-20T19:03:35.942Z,14.15
2022-10-20T19:08:14.456Z,17.48
2022-10-20T19:12:48.470Z,15.10
2022-10-20T19:17:25.190Z,17.45
2022-10-20T19:22:02.162Z,15.15
2022-10-20T19:26:10.959Z,15.82
2022-10-20T19:30:14.254Z,17.48
2022-10-20T19:34:47.932Z,13.23
2022-10-20T19:39:27.499Z,15.68
2022-10-20T19:44:03.341Z,10.73
2022-10-20T19:48:37.323Z,12.77
2022-10-20T19:53:14.321Z,11.35
2022-10-20T19:57:17.390Z,16.17
2022-10-20T20:01:55.891Z,12.45
2022-10-20T20:06:32.663Z,12.73
2022-10-20T20:11:21.301Z,14.95
2022-10-20T20:15:49.115Z,11.90
2022-10-20T20:19:53.603Z,16.48
2022-10-20T20:24:30.704Z,13.00
2022-10-20T20:28:33.989Z,10.52
2022-10-20T20:33:07.927Z,13.55
2022-10-20T20:37:46.302Z,12.98
2022-10-20T20:41:49.766Z,16.45
2022-10-20T20:46:27.640Z,12.52
2022-10-20T20:50:30.695Z,18.25
2022-10-20T20:54:35.156Z,14.80
2022-10-20T20:58:38.698Z,14.63
2022-10-20T21:02:45.085Z,16.17
2022-10-20T21:07:01.786Z,31.70
2022-10-20T21:11:09.152Z,15.77
2022-10-20T21:15:12.418Z,14.38
2022-10-20T21:19:15.597Z,14.43
2022-10-20T21:23:18.620Z,14.32
2022-10-20T21:27:57.111Z,14.93
2022-10-20T21:32:00.170Z,20.35
2022-10-20T21:36:38.694Z,14.52
2022-10-20T21:40:41.821Z,16.52
2022-10-20T21:45:19.253Z,16.95
2022-10-20T21:49:25.476Z,13.98
2022-10-20T21:53:28.766Z,16.42
2022-10-20T21:57:31.821Z,14.40
2022-10-20T22:02:13.635Z,13.70
2022-10-20T22:06:19.987Z,15.25
2022-10-20T22:10:50.634Z,16.50
2022-10-20T22:14:53.644Z,18.13
2022-10-20T22:19:31.408Z,14.55
2022-10-20T22:23:35.992Z,14.30
2022-10-20T22:28:10.308Z,16.27
2022-10-20T22:32:13.452Z,16.60
2022-10-20T22:36:16.546Z,14.48
2022-10-20T22:40:21.232Z,14.35
2022-10-20T22:44:24.263Z,16.00
2022-10-20T22:48:54.414Z,15.00
2022-10-20T22:52:57.467Z,16.13
2022-10-20T22:57:01.885Z,17.58
2022-10-20T23:01:36.187Z,15.60
2022-10-20T23:05:39.248Z,19.52
2022-10-20T23:09:42.311Z,19.02
2022-10-20T23:13:47.326Z,20.80
2022-10-20T23:17:50.442Z,17.95
2022-10-20T23:22:27.056Z,18.05
2022-10-20T23:26:30.107Z,17.75
2022-10-20T23:31:09.364Z,17.13
2022-10-20T23:35:12.567Z,16.45
2022-10-20T23:39:49.151Z,21.52
2022-10-20T23:43:52.265Z,22.60
2022-10-20T23:48:28.817Z,20.05
2022-10-20T23:52:33.251Z,22.88
2022-10-20T23:56:36.601Z,18.92
